Terminal Aerodrome Forecast
Issued by NWS

Home | Current Version | Previous Version | Text Only | Print | Product List | Glossary On
Versions: 1 2 3 4 5 6 7 8 9 10 11 12
180
FTUS46 KSTO 040520
TAFSCK
TAF
KSCK 040520Z 0406/0506 32008KT P6SM OVC250
     FM050000 30012KT P6SM OVC100=

USA.gov is the U.S. government's official web portal to all federal, state and local government web resources and services.